Time;durP1;ratioP1;P1;durP2;ratioP2;P2;SDS_P1;SDS_P2;PMS_P1;PMS_P2;Temp;Humidity;BMP_temperature;BMP_pressure;BME280_temperature;BME280_humidity;BME280_pressure;Samples;Min_cycle;Max_cycle;Signal;HPM_P1;HPM_P2
2022/11/12 00:01:21;;;;;;;11.43;6.63;;;;;;;;;;4965125;28;20027;-83
2022/11/12 00:03:47;;;;;;;10.75;6.07;;;;;;;;;;4984694;28;20027;-85
2022/11/12 00:06:13;;;;;;;10.55;6.22;;;;;;;;;;4965438;28;20322;-83
2022/11/12 00:08:39;;;;;;;11.82;6.13;;;;;;;;;;4967726;28;20091;-86
2022/11/12 00:11:06;;;;;;;12.93;5.32;;;;;;;;;;4958035;28;20035;-84
2022/11/12 00:13:32;;;;;;;8.70;5.55;;;;;;;;;;4982709;28;20493;-86
2022/11/12 00:15:58;;;;;;;11.77;6.13;;;;;;;;;;4962014;28;20492;-84
2022/11/12 00:18:25;;;;;;;12.38;6.38;;;;;;;;;;4966375;28;20027;-86
2022/11/12 00:20:56;;;;;;;11.90;6.70;;;;;;;;;;4961751;28;20023;-84
2022/11/12 00:23:24;;;;;;;;;;;7.30;99.90;;;;;;4950520;28;20062;-83
2022/11/12 00:25:57;;;;;;;13.77;6.97;;;;;;;;;;4963825;28;19915;-86
2022/11/12 00:28:23;;;;;;;15.82;6.93;;;;;;;;;;4965026;28;20019;-88
2022/11/12 00:30:49;;;;;;;13.25;7.18;;;;;;;;;;4966483;28;20027;-86
2022/11/12 00:33:15;;;;;;;11.40;6.97;;;;;;;;;;4967506;28;20473;-86
2022/11/12 00:35:42;;;;;;;9.98;6.53;;;;;;;;;;4985717;28;20097;-85
2022/11/12 00:38:08;;;;;;;12.75;6.82;;;;;;;;;;4966150;28;20023;-85
2022/11/12 00:40:34;;;;;;;10.90;6.55;;;;;;;;;;4966571;28;20035;-87
2022/11/12 00:43:03;;;;;;;10.80;6.22;;;;;;;;;;4981018;28;20027;-88
2022/11/12 00:45:29;;;;;;;11.38;6.15;;;;;;;;;;4956491;28;20118;-86
2022/11/12 00:47:55;;;;;;;10.32;5.65;;;;;;;;;;4968322;28;20027;-84
2022/11/12 00:50:21;;;;;;;8.82;5.15;;;;;;;;;;4969283;28;20149;-85
2022/11/12 00:52:47;;;;;;;8.85;5.32;;;;;;;;;;4968419;28;20126;-86
2022/11/12 00:55:13;;;;;;;8.88;5.57;;;;;;;;;;4969810;28;20509;-87
2022/11/12 00:57:39;;;;;;;9.60;5.20;;;;;;;;;;4969374;28;20035;-85
2022/11/12 01:00:09;;;;;;;7.60;4.78;;;;;;;;;;4969712;28;20082;-87
2022/11/12 01:02:35;;;;;;;8.32;4.82;;;;;;;;;;4965175;28;20035;-86
2022/11/12 01:05:01;;;;;;;8.65;5.13;;;;;;;;;;4969653;28;20078;-88
2022/11/12 01:07:27;;;;;;;10.10;5.15;;;;;;;;;;4970759;28;20030;-88
2022/11/12 01:09:53;;;;;;;8.35;5.20;;;;;;;;;;4966713;28;20119;-89
2022/11/12 01:12:19;;;;;;;11.48;4.72;;;;;;;;;;4972454;28;20019;-88
2022/11/12 01:14:45;;;;;;;8.07;4.90;;;;;;;;;;4974174;28;20043;-89
2022/11/12 01:17:11;;;;;;;7.93;4.82;;;;;;;;;;4974327;28;20047;-85
2022/11/12 01:19:37;;;;;;;7.50;4.65;;;;;;;;;;4979951;28;20030;-85
2022/11/12 01:22:03;;;;;;;8.73;5.10;;;;;;;;;;4971092;28;20027;-83
2022/11/12 01:24:29;;;;;;;7.70;4.80;;;;;;;;;;4968861;28;20076;-86
2022/11/12 01:26:55;;;;;;;9.27;4.60;;;;;;;;;;4968460;28;20030;-86
2022/11/12 01:29:23;;;;;;;9.95;5.32;;;;;;;;;;4969933;28;20038;-87
2022/11/12 01:31:49;;;;;;;8.55;5.18;;;;;;;;;;4968483;28;20090;-86
2022/11/12 01:34:16;;;;;;;7.53;4.97;;;;;;;;;;4988200;28;20062;-86
2022/11/12 01:36:42;;;;;;;10.40;4.90;;;;;;;;;;4986654;28;20037;-85
2022/11/12 01:39:12;;;;;;;8.38;4.70;;;7.40;99.90;;;;;;4986771;28;20014;-83
2022/11/12 01:41:40;;;;;;;10.02;5.40;;;;;;;;;;4990219;28;20090;-81
2022/11/12 01:44:12;;;;;;;11.35;5.50;;;;;;;;;;4973866;28;20027;-86
2022/11/12 01:47:05;;;;;;;9.75;4.93;;;7.50;99.90;;;;;;4971102;28;20034;-81
2022/11/12 01:49:35;;;;;;;9.50;5.85;;;;;;;;;;4979825;28;20035;-87
2022/11/12 01:52:23;;;;;;;11.70;5.75;;;7.40;99.90;;;;;;4968012;28;20030;-83
2022/11/12 01:54:51;;;;;;;8.55;5.07;;;7.30;99.90;;;;;;4970657;28;20031;-83
2022/11/12 01:57:24;;;;;;;11.32;5.43;;;7.40;99.90;;;;;;4984763;28;20046;-81
2022/11/12 01:59:52;;;;;;;8.95;5.40;;;;;;;;;;4972084;28;20034;-85
2022/11/12 02:02:18;;;;;;;10.55;4.88;;;;;;;;;;4969166;28;20019;-82
2022/11/12 02:04:45;;;;;;;10.07;5.35;;;;;;;;;;4968516;28;20477;-83
2022/11/12 02:07:11;;;;;;;10.43;6.05;;;;;;;;;;4950284;28;20039;-83
2022/11/12 02:09:38;;;;;;;8.50;5.38;;;;;;;;;;4979232;28;20035;-86
2022/11/12 02:12:04;;;;;;;10.32;5.68;;;;;;;;;;4985421;28;20031;-87
2022/11/12 02:14:31;;;;;;;9.23;5.22;;;;;;;;;;4967597;28;20031;-85
2022/11/12 02:16:58;;;;;;;9.43;4.57;;;;;;;;;;4968811;28;20038;-84
2022/11/12 02:19:25;;;;;;;12.73;5.32;;;;;;;;;;4983309;28;20090;-82
2022/11/12 02:21:51;;;;;;;7.45;4.75;;;;;;;;;;4966972;28;20055;-85
2022/11/12 02:24:20;;;;;;;9.13;4.72;;;;;;;;;;4968362;28;20038;-85
2022/11/12 02:26:50;;;;;;;8.02;4.60;;;7.40;99.90;;;;;;4968237;28;20022;-85
2022/11/12 02:29:16;;;;;;;10.32;5.15;;;7.40;99.90;;;;;;4970549;28;20019;-86
2022/11/12 02:31:42;;;;;;;7.43;4.65;;;7.40;99.90;;;;;;4964189;28;20110;-83
2022/11/12 02:34:08;;;;;;;8.10;4.13;;;;;;;;;;4964646;28;20070;-87
2022/11/12 02:36:36;;;;;;;8.30;4.40;;;;;;;;;;4990087;28;20018;-87
2022/11/12 02:39:02;;;;;;;8.40;4.80;;;;;;;;;;4964710;28;20027;-85
2022/11/12 02:41:28;;;;;;;8.27;4.97;;;;;;;;;;4979211;28;20026;-87
2022/11/12 02:43:54;;;;;;;9.07;4.50;;;;;;;;;;4967318;28;20039;-85
2022/11/12 02:46:20;;;;;;;7.38;4.20;;;;;;;;;;4977769;28;20036;-85
2022/11/12 02:48:46;;;;;;;8.00;4.68;;;;;;;;;;4970178;28;20031;-86
2022/11/12 02:51:13;;;;;;;7.50;4.30;;;;;;;;;;4986745;28;20057;-84
2022/11/12 02:53:39;;;;;;;6.97;4.30;;;;;;;;;;4974361;28;20041;-88
2022/11/12 02:56:06;;;;;;;8.02;4.60;;;;;;;;;;4959684;28;20028;-85
2022/11/12 02:58:32;;;;;;;10.95;5.10;;;;;;;;;;4966440;28;20054;-87
2022/11/12 03:00:58;;;;;;;10.43;5.10;;;;;;;;;;4986881;28;20485;-83
2022/11/12 03:03:27;;;;;;;7.30;4.38;;;;;;;;;;4967822;28;20034;-81
2022/11/12 03:05:59;;;;;;;8.40;4.75;;;6.80;99.90;;;;;;4967472;28;20489;-87
2022/11/12 03:08:25;;;;;;;7.95;4.97;;;;;;;;;;4956755;28;20038;-87
2022/11/12 03:11:11;;;;;;;10.23;5.50;;;6.90;99.90;;;;;;4970689;28;20413;-85
2022/11/12 03:13:37;;;;;;;9.77;5.10;;;;;;;;;;4985394;28;20026;-82
2022/11/12 03:16:03;;;;;;;12.50;5.65;;;;;;;;;;4967485;28;20038;-81
2022/11/12 03:18:29;;;;;;;9.90;5.40;;;;;;;;;;4953853;28;20043;-83
2022/11/12 03:20:55;;;;;;;10.13;5.57;;;;;;;;;;4969348;28;20389;-86
2022/11/12 03:23:23;;;;;;;11.45;5.47;;;;;;;;;;4964737;28;20035;-84
2022/11/12 03:25:49;;;;;;;9.23;5.13;;;;;;;;;;4966743;28;20023;-87
2022/11/12 03:28:16;;;;;;;8.63;4.85;;;;;;;;;;4967546;28;20506;-84
2022/11/12 03:30:42;;;;;;;9.82;4.80;;;6.90;99.90;;;;;;4968156;28;20245;-86
2022/11/12 03:33:10;;;;;;;8.57;4.90;;;6.80;99.90;;;;;;4968347;28;20066;-86
2022/11/12 03:35:37;;;;;;;7.82;4.88;;;;;;;;;;4973029;28;20031;-85
2022/11/12 03:38:03;;;;;;;8.55;5.20;;;;;;;;;;4952572;28;20043;-83
2022/11/12 03:40:30;;;;;;;9.57;4.88;;;;;;;;;;4988186;28;20026;-82
2022/11/12 03:42:56;;;;;;;8.88;5.20;;;;;;;;;;4970583;28;20022;-84
2022/11/12 03:45:24;;;;;;;11.40;5.00;;;6.90;99.90;;;;;;4978754;28;20043;-86
2022/11/12 03:47:52;;;;;;;9.25;5.53;;;;;;;;;;4963798;28;20094;-86
2022/11/12 03:50:20;;;;;;;8.80;5.55;;;6.90;99.90;;;;;;4961578;28;20035;-87
2022/11/12 03:52:47;;;;;;;11.05;5.60;;;;;;;;;;4961659;28;20054;-86
2022/11/12 03:55:18;;;;;;;12.73;6.07;;;6.90;99.90;;;;;;4960900;28;20031;-85
2022/11/12 03:57:44;;;;;;;;;;;6.80;99.90;;;;;;4966706;28;20034;-86
2022/11/12 04:00:11;;;;;;;12.65;5.68;;;6.80;99.90;;;;;;4969989;28;19906;-88
2022/11/12 04:02:37;;;;;;;10.70;5.50;;;;;;;;;;4981189;28;20031;-88
2022/11/12 04:10:35;;;;;;;10.35;5.78;;;;;;;;;;4982334;28;20073;-86
2022/11/12 04:21:49;;;;;;;9.15;5.55;;;;;;;;;;4988205;28;20038;-87
2022/11/12 04:24:00;;;;;;;9.25;5.43;;;;;;;;;;4991387;28;20109;-89
2022/11/12 04:26:26;;;;;;;12.55;5.43;;;;;;;;;;4971922;28;20019;-87
2022/11/12 04:31:38;;;;;;;8.55;4.78;;;;;;;;;;4983251;28;20038;-85
2022/11/12 04:36:55;;;;;;;9.75;4.72;;;6.60;99.90;;;;;;4979155;28;20090;-84
2022/11/12 04:39:21;;;;;;;9.70;4.82;;;;;;;;;;4992359;28;20035;-88
2022/11/12 04:47:18;;;;;;;13.10;5.15;;;;;;;;;;4982851;28;20215;-88
2022/11/12 04:49:44;;;;;;;9.70;5.45;;;;;;;;;;4972392;28;20027;-88
2022/11/12 04:52:10;;;;;;;9.05;4.90;;;;;;;;;;4966794;28;20063;-88
2022/11/12 04:54:36;;;;;;;10.30;5.75;;;;;;;;;;4972996;28;20035;-87
2022/11/12 04:57:05;;;;;;;10.85;5.00;;;;;;;;;;4952158;28;20035;-85
2022/11/12 04:59:31;;;;;;;10.68;4.40;;;;;;;;;;4986001;28;20031;-84
2022/11/12 05:01:57;;;;;;;12.70;4.80;;;;;;;;;;4969832;28;20031;-86
2022/11/12 05:04:26;;;;;;;7.80;3.92;;;;;;;;;;4974147;28;20629;-84
2022/11/12 05:06:56;;;;;;;9.23;4.85;;;6.70;99.90;;;;;;4984388;28;20030;-88
2022/11/12 05:09:25;;;;;;;8.60;4.40;;;6.70;99.90;;;;;;4962797;28;20042;-86
2022/11/12 05:11:51;;;;;;;8.10;4.45;;;;;;;;;;4968133;28;20150;-84
2022/11/12 05:14:17;;;;;;;9.00;4.10;;;;;;;;;;4966163;28;20076;-83
2022/11/12 05:16:44;;;;;;;8.80;4.45;;;;;;;;;;4966699;28;20023;-86
2022/11/12 05:19:10;;;;;;;7.68;4.70;;;;;;;;;;4969198;28;20111;-84
2022/11/12 05:24:21;;;;;;;8.88;4.35;;;;;;;;;;4978680;28;20030;-86
2022/11/12 05:26:47;;;;;;;14.27;5.00;;;;;;;;;;4968468;28;20170;-83
2022/11/12 05:29:13;;;;;;;10.05;4.95;;;;;;;;;;4978106;28;20027;-86
2022/11/12 05:31:39;;;;;;;13.23;5.20;;;;;;;;;;4986133;28;20054;-83
2022/11/12 05:34:05;;;;;;;10.30;5.53;;;;;;;;;;4967342;28;20034;-87
2022/11/12 05:36:34;;;;;;;9.07;4.75;;;;;;;;;;4970966;28;20031;-85
2022/11/12 05:39:00;;;;;;;9.38;4.57;;;;;;;;;;4996921;28;20018;-83
2022/11/12 05:41:28;;;;;;;17.45;5.30;;;;;;;;;;4977733;28;20106;-86
2022/11/12 05:43:54;;;;;;;13.85;4.70;;;;;;;;;;4963226;28;20027;-85
2022/11/12 05:46:20;;;;;;;16.30;5.30;;;;;;;;;;4987664;28;20043;-87
2022/11/12 05:48:45;;;;;;;9.38;5.35;;;6.40;99.90;;;;;;4969737;28;20022;-84
2022/11/12 05:51:12;;;;;;;12.18;5.63;;;;;;;;;;4970294;28;20038;-85
2022/11/12 05:53:38;;;;;;;9.75;4.80;;;;;;;;;;4986816;28;20393;-85
2022/11/12 05:56:06;;;;;;;10.18;4.88;;;;;;;;;;4971529;28;20027;-85
2022/11/12 05:58:33;;;;;;;9.90;5.25;;;;;;;;;;4972253;28;20043;-85
2022/11/12 06:00:59;;;;;;;10.13;5.05;;;;;;;;;;4993944;28;20029;-85
2022/11/12 06:03:25;;;;;;;9.70;4.82;;;;;;;;;;4990816;28;20027;-85
2022/11/12 06:05:52;;;;;;;9.30;5.30;;;;;;;;;;4960282;28;20060;-82
2022/11/12 06:08:18;;;;;;;10.27;5.00;;;;;;;;;;4983982;28;20030;-82
2022/11/12 06:10:52;;;;;;;9.65;5.15;;;;;;;;;;4975041;28;20051;-86
2022/11/12 06:13:19;;;;;;;8.75;4.25;;;;;;;;;;4983408;28;20094;-87
2022/11/12 06:15:45;;;;;;;10.20;5.25;;;;;;;;;;4969882;28;20043;-83
2022/11/12 06:18:11;;;;;;;7.72;4.35;;;;;;;;;;4971334;28;20019;-84
2022/11/12 06:20:38;;;;;;;8.18;4.50;;;;;;;;;;4985936;28;20023;-83
2022/11/12 06:23:05;;;;;;;7.95;4.22;;;;;;;;;;4960148;28;20038;-84
2022/11/12 06:25:31;;;;;;;8.10;4.15;;;;;;;;;;4964403;28;20453;-86
2022/11/12 06:27:57;;;;;;;9.10;4.82;;;;;;;;;;4971887;28;20046;-86
2022/11/12 06:30:23;;;;;;;8.55;4.68;;;;;;;;;;4964311;28;20047;-86
2022/11/12 06:32:50;;;;;;;7.80;4.63;;;;;;;;;;4962248;28;20040;-84
2022/11/12 06:35:17;;;;;;;9.50;4.72;;;6.50;99.90;;;;;;4986965;28;20027;-85
2022/11/12 06:37:46;;;;;;;11.75;5.80;;;;;;;;;;4952542;28;20035;-85
2022/11/12 06:40:15;;;;;;;9.48;4.50;;;;;;;;;;4972383;28;20019;-85
2022/11/12 06:42:41;;;;;;;14.35;4.90;;;;;;;;;;4987387;28;20053;-85
2022/11/12 06:45:07;;;;;;;10.90;5.15;;;;;;;;;;4978676;28;20031;-86
2022/11/12 06:47:34;;;;;;;11.93;5.05;;;;;;;;;;4960052;28;20030;-85
2022/11/12 06:50:01;;;;;;;15.52;5.93;;;;;;;;;;4971230;28;20065;-89
2022/11/12 06:52:27;;;;;;;10.13;5.00;;;;;;;;;;4971325;28;20095;-86
2022/11/12 06:54:53;;;;;;;11.30;5.20;;;;;;;;;;4978487;28;20034;-84
2022/11/12 06:57:19;;;;;;;9.05;4.68;;;;;;;;;;4970192;28;20034;-84
2022/11/12 06:59:45;;;;;;;12.48;5.25;;;;;;;;;;4967646;28;20026;-86
2022/11/12 07:02:12;;;;;;;10.15;5.18;;;;;;;;;;4992358;28;20588;-86
2022/11/12 07:04:38;;;;;;;10.55;5.25;;;;;;;;;;4971564;28;20027;-85
2022/11/12 07:07:04;;;;;;;12.27;4.95;;;;;;;;;;4967224;28;20105;-88
2022/11/12 07:09:30;;;;;;;12.50;5.80;;;6.50;99.90;;;;;;4977772;28;20112;-85
2022/11/12 07:11:56;;;;;;;10.93;5.15;;;;;;;;;;4974647;28;20086;-84
2022/11/12 07:14:22;;;;;;;12.85;4.97;;;;;;;;;;4965342;28;20126;-85
2022/11/12 07:16:48;;;;;;;9.02;4.72;;;;;;;;;;4967430;28;20051;-86
2022/11/12 07:19:14;;;;;;;9.43;4.32;;;;;;;;;;4988173;28;20026;-87
2022/11/12 07:21:40;;;;;;;10.68;5.63;;;;;;;;;;4970583;28;20445;-88
2022/11/12 07:24:06;;;;;;;9.95;5.10;;;;;;;;;;4986158;28;20042;-88
2022/11/12 07:26:33;;;;;;;8.05;4.47;;;;;;;;;;4984323;28;20033;-87
2022/11/12 07:31:32;;;;;;;10.27;5.00;;;;;;;;;;4985480;28;20051;-86
2022/11/12 07:33:59;;;;;;;9.77;4.95;;;;;;;;;;4992545;28;20038;-86
2022/11/12 07:36:25;;;;;;;7.53;4.20;;;;;;;;;;4995643;28;20027;-86
2022/11/12 07:38:52;;;;;;;8.63;4.40;;;6.40;99.90;;;;;;4990632;28;20035;-87
2022/11/12 07:41:20;;;;;;;9.82;4.60;;;;;;;;;;4995582;28;20019;-85
2022/11/12 07:43:48;;;;;;;9.50;4.80;;;;;;;;;;4998904;28;20011;-86
2022/11/12 07:46:20;;;;;;;9.48;4.95;;;;;;;;;;4996342;28;20054;-84
2022/11/12 07:48:46;;;;;;;10.15;3.85;;;;;;;;;;4987051;28;20018;-89
2022/11/12 07:51:20;;;;;;;8.90;4.45;;;;;;;;;;4971440;28;20059;-84
2022/11/12 07:53:47;;;;;;;8.40;3.60;;;6.50;99.90;;;;;;4990869;28;20031;-85
2022/11/12 07:56:14;;;;;;;8.32;4.20;;;;;;;;;;4982343;28;20022;-85
2022/11/12 07:58:40;;;;;;;7.40;4.00;;;;;;;;;;5006032;28;20027;-87
2022/11/12 08:01:39;;;;;;;7.63;4.20;;;6.40;99.90;;;;;;4983978;28;20397;-84
2022/11/12 08:04:12;;;;;;;8.23;3.70;;;6.40;99.90;;;;;;4922372;28;20031;-84
2022/11/12 08:06:39;;;;;;;8.52;4.13;;;;;;;;;;5014432;28;20026;-85
2022/11/12 08:09:07;;;;;;;8.00;3.75;;;;;;;;;;5004012;28;20106;-86
2022/11/12 08:11:33;;;;;;;7.45;3.70;;;;;;;;;;5019618;28;20069;-85
2022/11/12 08:14:01;;;;;;;7.18;4.00;;;;;;;;;;5003953;28;20069;-84
2022/11/12 08:16:28;;;;;;;7.43;4.05;;;;;;;;;;4988529;28;20015;-84
2022/11/12 08:19:15;;;;;;;6.72;3.67;;;;;;;;;;5005329;28;20038;-84
2022/11/12 08:22:25;;;;;;;10.73;4.47;;;6.60;99.90;;;;;;5004757;28;20041;-86
2022/11/12 11:39:45;;;;;;;12.00;5.80;;;;;;;;;;4987155;28;20124;-84
2022/11/12 11:42:43;;;;;;;9.55;5.80;;;;;;;;;;4985646;28;20077;-88
2022/11/12 11:49:11;;;;;;;11.27;6.50;;;7.80;99.90;;;;;;4907633;29;20086;-85
2022/11/12 11:55:47;;;;;;;9.77;5.95;;;;;;;;;;4868864;29;20131;-86
2022/11/12 13:03:51;;;;;;;9.93;5.78;;;;;;;;;;4893047;29;20044;-88
2022/11/12 13:26:34;;;;;;;10.25;6.75;;;;;;;;;;4928408;29;20039;-88
2022/11/12 14:09:04;;;;;;;14.00;8.07;;;;;;;;;;4953721;28;20044;-89
2022/11/12 14:11:49;;;;;;;12.45;7.95;;;;;;;;;;4974672;28;20386;-87
2022/11/12 14:14:24;;;;;;;10.93;7.55;;;;;;;;;;4971049;28;20043;-88
2022/11/12 14:16:55;;;;;;;12.43;8.43;;;;;;;;;;4973175;28;20050;-89
2022/11/12 14:19:46;;;;;;;13.13;8.55;;;;;;;;;;4964514;28;20004;-84
2022/11/12 14:22:17;;;;;;;12.10;8.23;;;;;;;;;;4970941;28;20039;-87
2022/11/12 14:24:44;;;;;;;12.93;8.40;;;;;;;;;;4972232;28;20038;-85
2022/11/12 14:27:32;;;;;;;13.70;8.98;;;8.20;99.90;;;;;;4963691;28;20062;-88
2022/11/12 14:30:10;;;;;;;13.85;8.68;;;;;;;;;;4969779;28;20031;-86
2022/11/12 14:32:40;;;;;;;14.75;8.85;;;;;;;;;;4966275;28;20525;-86
2022/11/12 14:35:36;;;;;;;17.30;9.40;;;;;;;;;;4967251;28;20027;-86
2022/11/12 14:38:28;;;;;;;14.30;9.32;;;;;;;;;;4946366;29;20027;-89
2022/11/12 14:41:05;;;;;;;13.50;8.82;;;;;;;;;;4985828;28;20099;-88
2022/11/12 14:43:41;;;;;;;13.85;9.02;;;;;;;;;;4989382;28;20031;-87
2022/11/12 14:46:07;;;;;;;14.52;9.18;;;;;;;;;;4980266;28;20016;-86
2022/11/12 14:48:47;;;;;;;15.00;9.63;;;;;;;;;;4971814;28;20027;-87
2022/11/12 14:51:14;;;;;;;13.52;8.68;;;;;;;;;;4950292;29;20249;-83
2022/11/12 14:53:43;;;;;;;13.63;9.00;;;;;;;;;;4967260;28;20059;-85
2022/11/12 14:56:23;;;;;;;17.02;10.23;;;8.00;99.90;;;;;;4964138;28;20030;-85
2022/11/12 14:58:52;;;;;;;14.10;9.65;;;;;;;;;;4937958;28;20513;-88
2022/11/12 15:01:24;;;;;;;15.45;10.05;;;;;;;;;;4967291;28;20037;-87
2022/11/12 15:03:50;;;;;;;16.95;9.50;;;;;;;;;;4973253;28;20031;-88
2022/11/12 15:06:31;;;;;;;14.13;9.45;;;8.00;99.90;;;;;;4963651;28;20020;-87
2022/11/12 15:08:58;;;;;;;15.05;9.68;;;;;;;;;;4951317;29;20043;-86
2022/11/12 15:11:32;;;;;;;18.27;9.63;;;;;;;;;;4967471;28;20035;-87
2022/11/12 15:14:00;;;;;;;14.68;8.95;;;;;;;;;;4967592;28;20540;-84
2022/11/12 15:16:28;;;;;;;13.32;8.82;;;;;;;;;;4958310;28;20035;-88
2022/11/12 15:19:00;;;;;;;15.82;10.25;;;;;;;;;;4963756;28;20509;-87
2022/11/12 15:21:27;;;;;;;15.63;10.32;;;;;;;;;;4953563;29;20054;-87
2022/11/12 15:24:12;;;;;;;17.70;10.45;;;;;;;;;;4936685;28;20040;-86
2022/11/12 15:26:41;;;;;;;16.13;10.32;;;;;;;;;;4970925;28;20023;-84
2022/11/12 15:29:22;;;;;;;14.45;9.93;;;;;;;;;;4969586;28;20027;-89
2022/11/12 15:31:50;;;;;;;18.00;11.13;;;;;;;;;;4969104;28;20031;-88
2022/11/12 15:34:33;;;;;;;17.58;10.40;;;;;;;;;;4970803;28;20031;-89
2022/11/12 15:37:04;;;;;;;15.85;10.45;;;8.10;99.90;;;;;;4970588;28;20035;-87
2022/11/12 15:39:34;;;;;;;16.05;10.30;;;;;;;;;;4954175;28;20022;-86
2022/11/12 15:42:02;;;;;;;17.90;10.90;;;;;;;;;;4968194;28;20122;-90
2022/11/12 15:44:33;;;;;;;16.23;10.10;;;;;;;;;;4960799;28;20039;-89
2022/11/12 15:46:59;;;;;;;16.23;10.32;;;;;;;;;;4964757;28;20075;-89
2022/11/12 15:49:25;;;;;;;16.15;10.52;;;;;;;;;;4960216;28;20023;-88
2022/11/12 15:51:51;;;;;;;17.75;10.52;;;;;;;;;;4967136;28;20035;-89
2022/11/12 15:54:17;;;;;;;18.02;10.38;;;;;;;;;;4965803;28;20039;-86
2022/11/12 15:56:43;;;;;;;16.50;10.18;;;;;;;;;;4970026;28;20043;-90
2022/11/12 15:59:18;;;;;;;16.08;10.60;;;;;;;;;;4957231;28;20060;-86
2022/11/12 16:01:44;;;;;;;16.92;10.82;;;;;;;;;;4948910;29;20032;-90
2022/11/12 16:04:13;;;;;;;16.05;10.93;;;;;;;;;;4964072;28;20481;-87
2022/11/12 16:06:39;;;;;;;16.75;10.90;;;;;;;;;;4968374;28;20036;-88
2022/11/12 16:09:05;;;;;;;17.40;11.13;;;;;;;;;;4961750;28;20493;-87
2022/11/12 16:11:34;;;;;;;18.35;11.00;;;;;;;;;;4970875;28;20035;-89
2022/11/12 16:14:01;;;;;;;18.98;10.60;;;;;;;;;;4963843;28;20027;-85
2022/11/12 16:16:27;;;;;;;18.08;11.40;;;;;;;;;;4972614;28;20038;-92
2022/11/12 16:18:55;;;;;;;18.38;11.25;;;;;;;;;;4972476;28;20035;-91
2022/11/12 16:21:22;;;;;;;18.35;11.55;;;;;;;;;;4967756;28;20094;-87
2022/11/12 16:23:48;;;;;;;19.50;11.77;;;;;;;;;;4966759;28;20032;-86
2022/11/12 16:26:15;;;;;;;20.70;11.32;;;;;;;;;;4966703;28;20027;-89
2022/11/12 16:28:42;;;;;;;20.23;11.65;;;;;;;;;;4970528;28;20035;-88
2022/11/12 16:31:11;;;;;;;20.23;12.35;;;;;;;;;;4966343;28;20027;-86
2022/11/12 16:33:39;;;;;;;19.52;11.73;;;;;;;;;;4969996;28;20041;-90
2022/11/12 16:36:12;;;;;;;21.85;12.48;;;;;;;;;;4972307;28;20031;-86
2022/11/12 16:38:40;;;;;;;22.83;12.65;;;;;;;;;;4934294;29;20039;-88
2022/11/12 16:41:11;;;;;;;21.90;12.43;;;;;;;;;;4969376;28;20061;-87
2022/11/12 16:43:37;;;;;;;23.08;13.45;;;;;;;;;;4968300;28;20513;-86
2022/11/12 16:46:12;;;;;;;22.30;13.38;;;;;;;;;;4959526;28;20032;-86
2022/11/12 16:48:38;;;;;;;21.75;13.45;;;;;;;;;;4969447;28;20026;-88
2022/11/12 16:51:05;;;;;;;22.77;13.43;;;;;;;;;;4977026;28;20489;-85
2022/11/12 16:53:31;;;;;;;24.80;13.65;;;;;;;;;;4971851;28;20023;-86
2022/11/12 16:55:57;;;;;;;27.27;13.43;;;;;;;;;;4976590;28;20440;-87
2022/11/12 16:58:23;;;;;;;23.05;13.32;;;;;;;;;;4966572;28;20034;-89
2022/11/12 17:00:49;;;;;;;24.38;13.70;;;;;;;;;;4967990;28;20078;-88
2022/11/12 17:03:15;;;;;;;22.13;13.05;;;;;;;;;;4982269;28;20022;-85
2022/11/12 17:05:41;;;;;;;24.58;13.93;;;;;;;;;;4967021;28;20445;-89
2022/11/12 17:08:08;;;;;;;24.10;13.60;;;;;;;;;;4980900;28;20038;-88
2022/11/12 17:10:34;;;;;;;24.67;14.43;;;8.20;99.90;;;;;;4964301;28;20042;-88
2022/11/12 17:13:00;;;;;;;25.23;13.35;;;;;;;;;;4966772;28;20027;-87
2022/11/12 17:15:26;;;;;;;25.48;14.32;;;;;;;;;;4965997;28;20087;-88
2022/11/12 17:17:55;;;;;;;25.33;13.90;;;;;;;;;;4961360;28;20053;-88
2022/11/12 17:20:21;;;;;;;24.65;13.95;;;;;;;;;;4970219;28;20079;-88
2022/11/12 17:22:47;;;;;;;25.48;14.27;;;;;;;;;;4959655;28;20722;-86
2022/11/12 17:25:13;;;;;;;23.45;13.82;;;;;;;;;;4964842;28;20114;-87
2022/11/12 17:27:40;;;;;;;23.90;13.52;;;;;;;;;;4969689;28;20020;-88
2022/11/12 17:30:10;;;;;;;21.83;14.00;;;;;;;;;;4974973;28;20024;-89
2022/11/12 17:32:36;;;;;;;24.85;13.38;;;;;;;;;;4981598;28;20057;-85
2022/11/12 17:35:03;;;;;;;20.10;11.90;;;;;;;;;;4976168;28;20030;-83
2022/11/12 17:37:29;;;;;;;24.38;14.35;;;;;;;;;;4973645;28;20110;-84
2022/11/12 17:39:55;;;;;;;25.13;12.80;;;;;;;;;;4960706;28;20028;-86
2022/11/12 17:42:21;;;;;;;22.75;13.65;;;;;;;;;;4969661;28;20036;-84
2022/11/12 17:44:47;;;;;;;23.40;13.80;;;;;;;;;;4975442;28;20028;-83
2022/11/12 17:47:13;;;;;;;24.45;14.65;;;;;;;;;;4982929;28;20037;-83
2022/11/12 17:49:40;;;;;;;21.83;13.35;;;;;;;;;;4983342;28;20094;-86
2022/11/12 17:52:06;;;;;;;23.35;13.85;;;;;;;;;;4977715;28;20023;-90
2022/11/12 17:54:33;;;;;;;23.70;13.27;;;;;;;;;;4968222;28;20035;-86
2022/11/12 17:56:59;;;;;;;24.10;13.07;;;;;;;;;;4947092;28;20027;-88
2022/11/12 17:59:25;;;;;;;22.33;13.30;;;;;;;;;;4969680;28;20031;-87
2022/11/12 18:01:51;;;;;;;22.63;13.73;;;;;;;;;;4972811;28;20035;-87
2022/11/12 18:04:17;;;;;;;23.50;13.32;;;;;;;;;;4969180;28;20082;-86
2022/11/12 18:06:43;;;;;;;21.55;13.10;;;;;;;;;;4961079;28;20070;-87
2022/11/12 18:09:14;;;;;;;20.55;12.70;;;8.20;99.90;;;;;;4956788;28;20067;-85
2022/11/12 18:11:43;;;;;;;;;;;8.20;99.90;;;;;;4958243;28;20031;-87
2022/11/12 18:14:09;;;;;;;20.65;12.60;;;;;;;;;;4955815;28;19921;-84
2022/11/12 18:16:35;;;;;;;20.45;12.50;;;;;;;;;;4936590;28;20039;-86
2022/11/12 18:19:01;;;;;;;20.50;12.10;;;;;;;;;;4958811;28;20024;-84
2022/11/12 18:21:28;;;;;;;18.02;11.30;;;;;;;;;;4958350;28;20473;-88
2022/11/12 18:23:53;;;;;;;21.02;12.23;;;;;;;;;;4952477;28;20028;-87
2022/11/12 18:26:20;;;;;;;18.23;10.95;;;;;;;;;;4948473;29;20027;-86
2022/11/12 18:28:52;;;;;;;22.77;12.13;;;;;;;;;;4944469;29;20027;-87
2022/11/12 18:31:18;;;;;;;16.90;10.32;;;;;;;;;;4961809;28;20040;-84
2022/11/12 18:33:44;;;;;;;15.65;10.13;;;;;;;;;;4961548;28;20031;-87
2022/11/12 18:36:12;;;;;;;16.42;9.88;;;;;;;;;;4955115;28;20027;-85
2022/11/12 18:38:38;;;;;;;15.23;9.73;;;;;;;;;;4955523;28;20035;-86
2022/11/12 18:41:07;;;;;;;15.88;9.68;;;8.30;99.90;;;;;;4955980;28;20331;-85
2022/11/12 18:43:33;;;;;;;17.23;10.43;;;;;;;;;;4964350;28;20151;-89
2022/11/12 18:45:59;;;;;;;16.10;9.90;;;;;;;;;;4967598;28;20037;-83
2022/11/12 18:48:29;;;;;;;16.92;10.20;;;;;;;;;;4972489;28;20035;-80
2022/11/12 18:51:00;;;;;;;15.98;9.23;;;8.30;99.90;;;;;;4969573;28;20035;-83
2022/11/12 18:53:27;;;;;;;14.15;9.32;;;;;;;;;;4948585;28;20510;-81
2022/11/12 18:55:54;;;;;;;15.07;9.48;;;;;;;;;;4966921;28;20058;-83
2022/11/12 18:58:20;;;;;;;14.70;8.88;;;;;;;;;;4957286;28;20028;-81
2022/11/12 19:00:46;;;;;;;13.00;8.88;;;;;;;;;;4965556;28;20520;-82
2022/11/12 19:03:15;;;;;;;15.38;8.80;;;;;;;;;;4957155;28;20023;-83
2022/11/12 19:05:48;;;;;;;13.63;8.45;;;;;;;;;;4957094;28;20074;-84
2022/11/12 19:08:14;;;;;;;15.27;8.70;;;;;;;;;;4962412;28;20069;-82
2022/11/12 19:10:40;;;;;;;14.85;9.63;;;;;;;;;;4956926;28;20058;-82
2022/11/12 19:13:06;;;;;;;15.18;9.23;;;;;;;;;;4960853;28;20031;-83
2022/11/12 19:15:33;;;;;;;14.85;8.63;;;;;;;;;;4952641;28;20033;-82
2022/11/12 19:18:02;;;;;;;14.85;8.95;;;;;;;;;;4938332;28;20030;-83
2022/11/12 19:20:29;;;;;;;16.50;9.40;;;;;;;;;;4956127;28;20037;-85
2022/11/12 19:22:55;;;;;;;15.43;9.65;;;;;;;;;;4954801;28;20019;-82
2022/11/12 19:25:21;;;;;;;15.52;9.52;;;;;;;;;;4958665;28;20038;-85
2022/11/12 19:27:47;;;;;;;15.45;8.75;;;;;;;;;;4956333;28;20027;-87
2022/11/12 19:30:16;;;;;;;16.50;9.35;;;;;;;;;;4962321;28;20027;-83
2022/11/12 19:32:46;;;;;;;15.50;9.07;;;;;;;;;;4959934;28;20035;-89
2022/11/12 19:35:12;;;;;;;15.15;8.73;;;;;;;;;;4955045;28;20136;-86
2022/11/12 19:37:38;;;;;;;16.45;9.45;;;;;;;;;;4955071;28;20031;-86
2022/11/12 19:40:04;;;;;;;16.27;10.18;;;;;;;;;;4957884;28;20031;-88
2022/11/12 19:42:34;;;;;;;16.95;9.70;;;;;;;;;;4941457;28;20031;-84
2022/11/12 19:45:01;;;;;;;17.45;10.65;;;;;;;;;;4948841;28;20019;-84
2022/11/12 19:47:30;;;;;;;17.42;9.52;;;;;;;;;;4952026;28;20031;-84
2022/11/12 19:49:56;;;;;;;18.63;10.93;;;;;;;;;;4962770;28;20542;-84
2022/11/12 19:52:22;;;;;;;20.38;11.90;;;;;;;;;;4960113;28;20039;-88
2022/11/12 19:54:48;;;;;;;22.05;11.32;;;;;;;;;;4957318;28;20043;-84
2022/11/12 19:57:14;;;;;;;19.17;11.27;;;;;;;;;;4958130;28;20024;-86
2022/11/12 19:59:41;;;;;;;21.55;12.10;;;;;;;;;;4955699;28;20023;-87
2022/11/12 20:02:08;;;;;;;20.75;12.25;;;;;;;;;;4951207;28;20389;-85
2022/11/12 20:04:35;;;;;;;21.38;12.55;;;;;;;;;;4955455;28;20027;-86
2022/11/12 20:07:00;;;;;;;20.98;11.20;;;;;;;;;;4959470;28;20268;-85
2022/11/12 20:09:27;;;;;;;20.80;11.27;;;;;;;;;;4961277;28;20036;-82
2022/11/12 20:11:53;;;;;;;21.05;12.38;;;;;;;;;;4954420;28;20046;-82
2022/11/12 20:14:19;;;;;;;21.00;11.73;;;;;;;;;;4956719;28;20031;-83
2022/11/12 20:16:45;;;;;;;20.20;12.27;;;;;;;;;;4951282;29;20038;-83
2022/11/12 20:19:11;;;;;;;24.08;12.77;;;;;;;;;;4960999;28;20058;-86
2022/11/12 20:21:37;;;;;;;23.85;12.60;;;;;;;;;;4960780;28;20023;-83
2022/11/12 20:24:03;;;;;;;21.65;12.85;;;;;;;;;;4962134;28;20043;-84